This is the latest recevied weather packets stored in our database for station/object M1DJR. If no packets are shown the sender has not sent any weather packets the latest 10 day(s).
| Time | Temp. | Humidity | Pressure | Rain* | Wind** | Luminosity | Snow |
|---|---|---|---|---|---|---|---|
| 1777665811 | 15° C | 69% | 1018 hPa | - | - | - | - |
| 1777659190 | 17.78° C | 54% | 1017.5 hPa | - | - | - | - |
| 1777658597 | 18.33° C | 52% | 1017.5 hPa | - | - | - | - |
| 1777657383 | 18.89° C | 49% | 1017.3 hPa | - | - | - | - |
| 1777654986 | 21.11° C | 45% | 1016.9 hPa | - | - | - | - |
| 1777654373 | 21.67° C | 43% | 1017 hPa | - | - | - | - |
| 1777649568 | 25.56° C | 33% | 1016.8 hPa | - | - | - | - |
| 1777646548 | 26.67° C | 30% | 1017.3 hPa | - | - | - | - |
| 1777643578 | 27.78° C | 29% | 1017.5 hPa | - | - | - | - |
| 1777642985 | 27.78° C | 29% | 1017.7 hPa | - | - | - | - |
| 1777641169 | 27.78° C | 30% | 1017.9 hPa | - | - | - | - |
| 1777638722 | 26.67° C | 32% | 1018.2 hPa | - | - | - | - |
| 1777636323 | 24.44° C | 34% | 1018.5 hPa | - | - | - | - |
| 1777635109 | 22.78° C | 38% | 1018.6 hPa | - | - | - | - |
| 1777634508 | 21.67° C | 39% | 1018.6 hPa | - | - | - | - |
| 1777633906 | 20.56° C | 41% | 1018.7 hPa | - | - | - | - |
| 1777633303 | 20° C | 41% | 1018.8 hPa | - | - | - | - |
| 1777629692 | 17.78° C | 44% | 1019.3 hPa | - | - | - | - |
| 1777627886 | 16.67° C | 44% | 1019.4 hPa | - | - | - | - |
| 1777626691 | 15.56° C | 45% | 1019.5 hPa | - | - | - | - |
| 1777618855 | 8.89° C | 62% | 1019.4 hPa | - | - | - | - |
| 1777617089 | 8.33° C | 63% | 1019.5 hPa | - | - | - | - |
| 1777616447 | 7.78° C | 63% | 1019.5 hPa | - | - | - | - |
| 1777615845 | 7.78° C | 63% | 1019.6 hPa | - | - | - | - |
| 1777614039 | 7.22° C | 61% | 1019.5 hPa | - | - | - | - |
* Rain since midnight (hover to see other rain measurements)
** Current wind speed in m/s (hover to see current wind gust speed)